createdAt,value
2022-12-16T00:01:16.728Z,43.20
2022-12-16T00:03:49.322Z,45.97
2022-12-16T00:06:20.169Z,44.97
2022-12-16T00:08:47.978Z,45.73
2022-12-16T00:11:15.967Z,42.53
2022-12-16T00:13:44.164Z,47.43
2022-12-16T00:16:15.432Z,45.53
2022-12-16T00:18:43.546Z,47.27
2022-12-16T00:21:12.272Z,42.83
2022-12-16T00:23:41.704Z,46.20
2022-12-16T00:26:10.249Z,47.10
2022-12-16T00:28:38.246Z,49.57
2022-12-16T00:31:06.475Z,45.23
2022-12-16T00:33:36.189Z,54.23
2022-12-16T00:36:04.363Z,45.50
2022-12-16T00:38:32.114Z,46.50
2022-12-16T00:41:00.099Z,46.27
2022-12-16T00:43:27.801Z,49.77
2022-12-16T00:45:55.563Z,49.03
2022-12-16T00:48:23.966Z,49.80
2022-12-16T00:50:55.395Z,48.17
2022-12-16T00:53:24.219Z,47.43
2022-12-16T00:55:52.358Z,48.53
2022-12-16T00:58:21.479Z,44.67
2022-12-16T01:00:49.232Z,46.77
2022-12-16T01:03:21.590Z,45.73
2022-12-16T01:05:50.453Z,47.17
2022-12-16T01:08:20.029Z,44.77
2022-12-16T01:10:51.962Z,45.77
2022-12-16T01:13:21.282Z,49.20
2022-12-16T01:15:49.177Z,49.07
2022-12-16T01:18:20.011Z,41.87
2022-12-16T01:20:47.786Z,46.73
2022-12-16T01:23:15.499Z,43.63
2022-12-16T01:25:44.882Z,46.93
2022-12-16T01:28:12.589Z,50.10
2022-12-16T01:30:40.335Z,48.10
2022-12-16T01:33:08.044Z,52.10
2022-12-16T01:35:55.207Z,45.23
2022-12-16T01:38:23.853Z,54.30
2022-12-16T01:40:52.941Z,50.17
2022-12-16T01:43:26.492Z,47.10
2022-12-16T01:45:58.105Z,47.23
2022-12-16T01:48:36.957Z,49.07
2022-12-16T01:51:09.146Z,49.63
2022-12-16T01:53:39.917Z,48.93
2022-12-16T01:56:09.709Z,47.80
2022-12-16T01:58:40.560Z,47.10
2022-12-16T02:01:09.148Z,46.33
2022-12-16T02:03:38.509Z,47.07
2022-12-16T02:06:08.081Z,50.20
2022-12-16T02:08:36.416Z,48.20
2022-12-16T02:11:37.653Z,48.30
2022-12-16T02:14:34.160Z,48.13
2022-12-16T02:17:10.584Z,49.37
2022-12-16T02:20:15.009Z,46.20
2022-12-16T02:23:00.265Z,46.97
2022-12-16T02:25:48.384Z,43.60
2022-12-16T02:28:33.588Z,50.23
2022-12-16T02:33:48.516Z,53.37
2022-12-16T02:36:26.051Z,45.57
2022-12-16T02:39:00.163Z,46.03
2022-12-16T02:41:39.004Z,43.17
2022-12-16T02:44:09.401Z,46.10
2022-12-16T02:46:41.881Z,49.07
2022-12-16T02:49:44.629Z,47.70
2022-12-16T02:52:13.748Z,46.27
2022-12-16T02:54:42.046Z,42.97
2022-12-16T02:57:23.903Z,48.10
2022-12-16T03:00:03.452Z,48.87
2022-12-16T03:02:39.355Z,46.20
2022-12-16T03:05:15.666Z,44.27
2022-12-16T03:07:46.073Z,48.50
2022-12-16T03:10:18.527Z,46.10
2022-12-16T03:12:47.199Z,49.63
2022-12-16T03:15:20.058Z,47.00
2022-12-16T03:17:49.919Z,48.13
2022-12-16T03:20:24.079Z,45.47
2022-12-16T03:22:53.311Z,46.03
2022-12-16T03:25:22.500Z,42.50
2022-12-16T03:27:58.519Z,41.63
2022-12-16T03:30:29.688Z,44.50
2022-12-16T03:33:03.069Z,48.77
2022-12-16T03:35:38.082Z,47.70
2022-12-16T03:38:09.140Z,47.10
2022-12-16T03:40:39.516Z,41.47
2022-12-16T03:43:09.050Z,46.63
2022-12-16T03:45:39.091Z,43.97
2022-12-16T03:48:08.917Z,44.23
2022-12-16T03:50:39.410Z,47.47
2022-12-16T03:53:08.494Z,46.37
2022-12-16T03:55:36.359Z,39.80
2022-12-16T03:58:04.292Z,42.70
2022-12-16T04:00:32.732Z,43.33
2022-12-16T04:03:00.877Z,42.63
2022-12-16T04:05:29.118Z,43.80
2022-12-16T04:08:01.832Z,40.07
2022-12-16T04:10:47.667Z,45.30
2022-12-16T04:13:33.428Z,45.10
2022-12-16T04:16:19.583Z,44.23
2022-12-16T04:19:06.108Z,47.70
2022-12-16T04:21:51.452Z,46.80
2022-12-16T04:24:30.045Z,38.83
2022-12-16T04:27:16.098Z,42.63
2022-12-16T04:29:58.010Z,43.83
2022-12-16T04:32:25.860Z,43.87
2022-12-16T04:34:52.908Z,43.93
2022-12-16T04:37:38.344Z,197.93
2022-12-16T04:40:26.335Z,75.30
2022-12-16T04:43:11.716Z,48.07
2022-12-16T04:45:57.614Z,44.90
2022-12-16T04:48:51.082Z,51.80
2022-12-16T04:51:36.362Z,43.10
2022-12-16T04:54:21.714Z,48.63
2022-12-16T04:57:08.369Z,49.10
2022-12-16T04:59:53.663Z,44.13
2022-12-16T05:02:39.049Z,46.80
2022-12-16T05:05:25.151Z,46.17
2022-12-16T05:08:10.478Z,48.30
2022-12-16T05:10:55.750Z,49.87
2022-12-16T05:13:42.415Z,41.47
2022-12-16T05:16:27.829Z,46.63
2022-12-16T05:19:14.011Z,52.53
2022-12-16T05:21:59.224Z,45.33
2022-12-16T05:24:47.330Z,51.90
2022-12-16T05:27:36.330Z,43.23
2022-12-16T05:30:23.358Z,44.83
2022-12-16T05:33:08.664Z,90.33
2022-12-16T05:36:05.454Z,55.40
2022-12-16T05:38:50.823Z,58.60
2022-12-16T05:41:36.160Z,57.43
2022-12-16T05:44:21.458Z,124.27
2022-12-16T05:47:08.156Z,82.23
2022-12-16T05:49:53.247Z,47.97
2022-12-16T05:52:39.120Z,49.17
2022-12-16T05:55:27.896Z,50.10
2022-12-16T05:58:17.319Z,50.80
2022-12-16T06:01:17.117Z,46.43
2022-12-16T06:04:17.755Z,47.83
2022-12-16T06:07:03.232Z,53.77
2022-12-16T06:09:53.139Z,57.60
2022-12-16T06:12:41.531Z,46.33
2022-12-16T06:15:27.699Z,46.40
2022-12-16T06:18:13.163Z,54.13
2022-12-16T06:21:08.277Z,44.73
2022-12-16T06:23:53.626Z,48.73
2022-12-16T06:26:39.036Z,45.80
2022-12-16T06:29:24.316Z,48.53
2022-12-16T06:32:09.630Z,48.63
2022-12-16T06:34:54.777Z,46.70
2022-12-16T06:37:41.422Z,47.00
2022-12-16T06:40:28.096Z,45.50
2022-12-16T06:43:13.452Z,51.07
2022-12-16T06:45:58.899Z,47.33
2022-12-16T06:48:43.980Z,50.37
2022-12-16T06:51:29.438Z,47.97
2022-12-16T06:54:16.040Z,40.70
2022-12-16T06:57:01.229Z,47.10
2022-12-16T06:59:46.453Z,52.70
2022-12-16T07:02:31.858Z,47.20
2022-12-16T07:05:17.236Z,46.30
2022-12-16T07:08:06.475Z,45.97
2022-12-16T07:10:53.014Z,49.63
2022-12-16T07:13:40.742Z,50.40
2022-12-16T07:16:26.038Z,41.23
2022-12-16T07:19:11.136Z,45.70
2022-12-16T07:21:56.624Z,39.13
2022-12-16T07:24:41.866Z,54.37
2022-12-16T07:27:28.533Z,48.20
2022-12-16T07:30:13.831Z,45.53
2022-12-16T07:32:59.165Z,44.63
2022-12-16T07:35:44.649Z,49.40
2022-12-16T07:38:29.940Z,45.97
2022-12-16T07:41:15.263Z,50.10
2022-12-16T07:44:01.787Z,48.00
2022-12-16T07:46:47.298Z,43.53
2022-12-16T07:49:32.716Z,48.13
2022-12-16T07:52:17.964Z,50.43
2022-12-16T07:55:03.194Z,50.83
2022-12-16T07:57:48.380Z,48.13
2022-12-16T08:00:35.394Z,49.70
2022-12-16T08:03:20.779Z,49.10
2022-12-16T08:06:07.347Z,48.10
2022-12-16T08:08:52.632Z,50.87
2022-12-16T08:11:37.857Z,49.77
2022-12-16T08:14:25.426Z,46.37
2022-12-16T08:17:12.308Z,47.67
2022-12-16T08:19:57.463Z,45.57
2022-12-16T08:22:42.863Z,44.87
2022-12-16T08:25:28.285Z,45.30
2022-12-16T08:28:13.688Z,46.67
2022-12-16T08:30:58.920Z,53.23
2022-12-16T08:33:45.779Z,48.50
2022-12-16T08:36:31.136Z,47.57
2022-12-16T08:39:16.610Z,45.37
2022-12-16T08:42:01.857Z,44.00
2022-12-16T08:44:47.259Z,46.47
2022-12-16T08:47:32.514Z,47.37
2022-12-16T08:50:19.287Z,45.30
2022-12-16T08:53:04.602Z,52.43
2022-12-16T08:55:50.053Z,47.90
2022-12-16T08:58:35.302Z,46.90
2022-12-16T09:01:20.827Z,50.10
2022-12-16T09:04:06.269Z,50.43
2022-12-16T09:06:52.697Z,51.53
2022-12-16T09:09:37.889Z,51.10
2022-12-16T09:12:23.271Z,52.03
2022-12-16T09:15:08.748Z,49.47
2022-12-16T09:17:54.010Z,44.67
2022-12-16T09:20:39.261Z,43.77
2022-12-16T09:23:25.915Z,45.80
2022-12-16T09:26:11.381Z,44.47
2022-12-16T09:28:56.457Z,47.90
2022-12-16T09:31:41.822Z,46.97
2022-12-16T09:34:26.943Z,48.67
2022-12-16T09:37:12.327Z,47.70
2022-12-16T09:39:58.885Z,47.37
2022-12-16T09:42:55.376Z,48.60
2022-12-16T09:45:50.778Z,52.27
2022-12-16T09:48:43.033Z,47.23
2022-12-16T09:51:29.826Z,50.67
2022-12-16T09:54:16.129Z,46.83
2022-12-16T09:57:04.159Z,43.37
2022-12-16T09:59:53.404Z,45.63
2022-12-16T10:02:39.554Z,47.13
2022-12-16T10:05:30.181Z,49.70
2022-12-16T10:08:23.076Z,48.93
2022-12-16T10:11:17.628Z,43.93
2022-12-16T10:14:15.990Z,40.63
2022-12-16T10:17:10.951Z,49.17
2022-12-16T10:20:12.282Z,39.83
2022-12-16T10:23:04.155Z,46.07
2022-12-16T10:25:57.924Z,37.67
2022-12-16T10:28:56.884Z,44.60
2022-12-16T10:31:40.380Z,42.27
2022-12-16T10:34:32.287Z,49.77
2022-12-16T10:37:21.123Z,43.27
2022-12-16T10:40:09.284Z,36.97
2022-12-16T10:42:59.168Z,39.60
2022-12-16T10:45:47.461Z,39.23
2022-12-16T10:48:41.053Z,44.33
2022-12-16T10:51:32.988Z,36.23
2022-12-16T10:54:29.479Z,39.13
2022-12-16T10:57:23.851Z,36.27
2022-12-16T11:00:09.166Z,38.57
2022-12-16T11:02:56.874Z,35.10
2022-12-16T11:05:50.927Z,34.03
2022-12-16T11:08:43.799Z,39.10
2022-12-16T11:11:40.333Z,45.43
2022-12-16T11:14:38.794Z,39.70
2022-12-16T11:17:33.195Z,34.43
2022-12-16T11:20:33.404Z,34.90
2022-12-16T11:23:35.123Z,36.67
2022-12-16T11:26:35.864Z,33.57
2022-12-16T11:29:29.023Z,34.93
2022-12-16T11:32:21.826Z,34.50
2022-12-16T11:35:13.310Z,31.33
2022-12-16T11:38:00.184Z,33.40
2022-12-16T11:40:49.000Z,33.17
2022-12-16T11:43:36.592Z,35.10
2022-12-16T11:46:28.645Z,31.73
2022-12-16T11:49:23.374Z,29.70
2022-12-16T11:52:35.813Z,34.67
2022-12-16T11:56:03.207Z,33.10
2022-12-16T11:58:47.968Z,29.37
2022-12-16T12:01:51.884Z,30.17
2022-12-16T12:04:41.248Z,32.80
2022-12-16T12:07:44.555Z,28.77
2022-12-16T12:10:48.694Z,29.17
2022-12-16T12:13:49.710Z,30.07
2022-12-16T12:16:43.773Z,29.83
2022-12-16T12:19:34.336Z,32.17
2022-12-16T12:22:26.197Z,27.27
2022-12-16T12:25:20.140Z,30.03
2022-12-16T12:28:13.695Z,33.10
2022-12-16T12:31:06.045Z,30.67
2022-12-16T12:34:15.746Z,30.80
2022-12-16T12:37:10.141Z,32.17
2022-12-16T12:40:01.419Z,31.43
2022-12-16T12:42:55.082Z,31.10
2022-12-16T12:46:01.169Z,33.80
2022-12-16T12:48:57.440Z,32.27
2022-12-16T12:51:48.995Z,31.40
2022-12-16T12:54:41.701Z,31.10
2022-12-16T12:57:35.250Z,34.00
2022-12-16T13:00:23.562Z,34.27
2022-12-16T13:03:15.962Z,33.13
2022-12-16T13:06:02.988Z,31.80
2022-12-16T13:09:04.167Z,32.10
2022-12-16T13:11:49.478Z,29.97
2022-12-16T13:15:13.035Z,33.67
2022-12-16T13:18:31.774Z,29.33
2022-12-16T13:21:18.863Z,36.27
2022-12-16T13:24:04.625Z,30.70
2022-12-16T13:26:52.015Z,35.83
2022-12-16T13:29:39.903Z,31.23
2022-12-16T13:32:36.377Z,35.37
2022-12-16T13:35:24.335Z,36.53
2022-12-16T13:38:12.265Z,37.17
2022-12-16T13:41:14.234Z,34.93
2022-12-16T13:44:10.320Z,32.87
2022-12-16T13:47:01.579Z,35.67
2022-12-16T13:50:00.047Z,36.90
2022-12-16T13:52:56.116Z,37.67
2022-12-16T13:55:47.973Z,38.23
2022-12-16T13:58:40.468Z,38.93
2022-12-16T14:01:31.414Z,37.63
2022-12-16T14:04:19.649Z,37.50
2022-12-16T14:07:04.942Z,35.70
2022-12-16T14:09:55.215Z,40.67
2022-12-16T14:13:11.419Z,39.07
2022-12-16T14:16:09.345Z,42.03
2022-12-16T14:19:05.848Z,38.70
2022-12-16T14:21:58.151Z,38.93
2022-12-16T14:24:46.433Z,36.73
2022-12-16T14:27:34.706Z,41.57
2022-12-16T14:30:47.872Z,41.13
2022-12-16T14:33:41.558Z,38.90
2022-12-16T14:36:41.147Z,35.40
2022-12-16T14:39:30.583Z,37.70
2022-12-16T14:42:16.061Z,41.10
2022-12-16T14:45:04.287Z,42.07
2022-12-16T14:47:50.786Z,46.80
2022-12-16T14:50:43.819Z,38.77
2022-12-16T14:53:33.805Z,45.33
2022-12-16T14:56:36.647Z,42.37
2022-12-16T14:59:31.471Z,38.67
2022-12-16T15:02:22.208Z,46.30
2022-12-16T15:05:08.165Z,43.67
2022-12-16T15:07:56.522Z,51.73
2022-12-16T15:10:45.694Z,42.87
2022-12-16T15:13:36.422Z,44.70
2022-12-16T15:16:23.564Z,45.50
2022-12-16T15:19:15.882Z,44.97
2022-12-16T15:22:03.222Z,45.73
2022-12-16T15:24:53.552Z,56.57
2022-12-16T15:27:43.496Z,50.83
2022-12-16T15:30:52.244Z,53.90
2022-12-16T15:33:39.852Z,55.37
2022-12-16T15:36:40.267Z,50.73
2022-12-16T15:39:38.006Z,54.30
2022-12-16T15:42:26.096Z,57.20
2022-12-16T15:45:11.573Z,52.87
2022-12-16T15:47:57.392Z,52.73
2022-12-16T15:50:45.259Z,67.63
2022-12-16T15:53:46.833Z,56.27
2022-12-16T15:56:37.710Z,58.00
2022-12-16T15:59:37.562Z,50.90
2022-12-16T16:02:25.884Z,54.30
2022-12-16T16:05:12.595Z,59.67
2022-12-16T16:08:03.468Z,54.30
2022-12-16T16:10:49.026Z,60.27
2022-12-16T16:13:35.908Z,62.70
2022-12-16T16:16:21.840Z,60.97
2022-12-16T16:19:06.917Z,60.53
2022-12-16T16:21:52.288Z,67.63
2022-12-16T16:24:37.785Z,58.97
2022-12-16T16:27:29.741Z,69.30
2022-12-16T16:30:16.834Z,57.37
2022-12-16T16:33:02.215Z,65.10
2022-12-16T16:35:54.126Z,63.30
2022-12-16T16:38:39.428Z,65.70
2022-12-16T16:41:32.155Z,61.10
2022-12-16T16:44:19.864Z,64.63
2022-12-16T16:47:07.131Z,63.53
2022-12-16T16:49:56.138Z,68.43
2022-12-16T16:52:55.016Z,65.63
2022-12-16T16:55:42.225Z,70.83
2022-12-16T16:58:33.155Z,78.90
2022-12-16T17:01:18.617Z,74.57
2022-12-16T17:04:05.598Z,72.23
2022-12-16T17:06:51.407Z,83.00
2022-12-16T17:09:36.733Z,77.50
2022-12-16T17:12:39.975Z,73.00
2022-12-16T17:15:33.482Z,71.17
2022-12-16T17:18:15.439Z,74.80
2022-12-16T17:21:01.812Z,73.07
2022-12-16T17:23:47.271Z,70.80
2022-12-16T17:26:32.449Z,69.27
2022-12-16T17:29:17.792Z,67.63
2022-12-16T17:32:03.108Z,68.00
2022-12-16T17:34:48.215Z,66.23
2022-12-16T17:37:34.857Z,62.30
2022-12-16T17:40:20.029Z,70.90
2022-12-16T17:43:05.256Z,61.13
2022-12-16T17:45:50.651Z,60.80
2022-12-16T17:48:35.973Z,63.23
2022-12-16T17:51:22.345Z,70.10
2022-12-16T17:54:17.664Z,62.80
2022-12-16T17:57:07.287Z,73.03
2022-12-16T17:59:54.722Z,71.37
2022-12-16T18:02:40.474Z,70.90
2022-12-16T18:05:29.964Z,85.57
2022-12-16T18:08:20.622Z,86.40
2022-12-16T18:11:10.584Z,81.77
2022-12-16T18:13:55.906Z,66.37
2022-12-16T18:16:41.345Z,77.23
2022-12-16T18:19:27.151Z,72.73
2022-12-16T18:22:12.417Z,69.43
2022-12-16T18:24:57.742Z,75.10
2022-12-16T18:27:44.977Z,69.93
2022-12-16T18:30:30.768Z,61.40
2022-12-16T18:33:16.172Z,62.03
2022-12-16T18:36:01.426Z,58.63
2022-12-16T18:38:50.040Z,59.90
2022-12-16T18:41:36.999Z,67.40
2022-12-16T18:44:25.129Z,68.93
2022-12-16T18:47:10.476Z,63.73
2022-12-16T18:49:55.822Z,65.50
2022-12-16T18:52:41.135Z,65.93
2022-12-16T18:55:27.066Z,62.57
2022-12-16T18:58:42.231Z,61.57
2022-12-16T19:01:23.619Z,62.30
2022-12-16T19:04:09.264Z,62.53
2022-12-16T19:06:54.649Z,65.77
2022-12-16T19:09:39.986Z,59.70
2022-12-16T19:12:25.500Z,63.07
2022-12-16T19:15:11.068Z,65.47
2022-12-16T19:17:57.694Z,67.67
2022-12-16T19:20:43.053Z,62.27
2022-12-16T19:23:27.548Z,62.43
2022-12-16T19:26:15.363Z,65.27
2022-12-16T19:29:00.776Z,66.97
2022-12-16T19:31:46.236Z,62.13
2022-12-16T19:34:33.276Z,61.80
2022-12-16T19:37:19.692Z,69.73
2022-12-16T19:40:04.887Z,69.70
2022-12-16T19:42:50.434Z,61.63
2022-12-16T19:45:36.639Z,66.10
2022-12-16T19:48:25.000Z,64.30
2022-12-16T19:51:16.535Z,61.43
2022-12-16T19:54:02.754Z,62.73
2022-12-16T19:56:48.496Z,52.80
2022-12-16T19:59:33.761Z,58.23
2022-12-16T20:02:19.228Z,57.20
2022-12-16T20:05:05.000Z,54.03
2022-12-16T20:07:51.755Z,58.93
2022-12-16T20:10:37.210Z,60.77
2022-12-16T20:16:31.719Z,61.87
2022-12-16T20:19:18.037Z,67.27
2022-12-16T20:22:06.766Z,67.00
2022-12-16T20:27:59.860Z,65.23
2022-12-16T20:30:45.299Z,68.57
2022-12-16T20:33:31.757Z,64.97
2022-12-16T20:36:17.626Z,58.10
2022-12-16T20:38:59.619Z,55.90
2022-12-16T20:41:46.144Z,54.73
2022-12-16T20:44:31.513Z,54.53
2022-12-16T20:47:16.807Z,60.33
2022-12-16T20:50:02.194Z,57.33
2022-12-16T20:52:47.607Z,56.60
2022-12-16T20:55:32.846Z,53.90
2022-12-16T20:58:19.559Z,52.13
2022-12-16T21:01:09.596Z,56.77
2022-12-16T21:03:54.918Z,58.93
2022-12-16T21:06:41.709Z,64.60
2022-12-16T21:09:26.979Z,55.87
2022-12-16T21:12:12.314Z,59.87
2022-12-16T21:14:58.120Z,53.57
2022-12-16T21:17:43.548Z,56.10
2022-12-16T21:20:29.136Z,60.87
2022-12-16T21:23:18.162Z,57.63
2022-12-16T21:26:17.991Z,56.43
2022-12-16T21:29:03.163Z,54.50
2022-12-16T21:31:49.459Z,62.40
2022-12-16T21:34:34.762Z,67.93
2022-12-16T21:37:20.024Z,72.57
2022-12-16T21:40:05.363Z,80.50
2022-12-16T21:42:50.891Z,76.20
2022-12-16T21:45:37.032Z,79.33
2022-12-16T21:48:24.077Z,84.83
2022-12-16T21:51:10.217Z,83.27
2022-12-16T21:53:55.617Z,77.60
2022-12-16T21:56:41.824Z,77.60
2022-12-16T21:59:27.201Z,69.07
2022-12-16T22:02:12.588Z,70.63
2022-12-16T22:04:59.054Z,73.77
2022-12-16T22:07:45.150Z,59.80
2022-12-16T22:10:30.459Z,58.43
2022-12-16T22:13:17.947Z,58.67
2022-12-16T22:16:12.152Z,54.30
2022-12-16T22:18:57.359Z,46.27
2022-12-16T22:21:43.854Z,45.23
2022-12-16T22:24:29.524Z,48.07
2022-12-16T22:27:15.223Z,43.07
2022-12-16T22:30:00.518Z,43.80
2022-12-16T22:32:45.828Z,41.77
2022-12-16T22:35:31.356Z,38.70
2022-12-16T22:38:18.031Z,38.50
2022-12-16T22:41:12.083Z,37.37
2022-12-16T22:43:57.457Z,39.57
2022-12-16T22:46:42.905Z,41.60
2022-12-16T22:49:28.057Z,37.40
2022-12-16T22:52:13.390Z,38.47
2022-12-16T22:55:00.036Z,40.23
2022-12-16T22:57:45.817Z,37.17
2022-12-16T23:00:32.609Z,35.90
2022-12-16T23:03:17.851Z,35.47
2022-12-16T23:06:03.131Z,37.40
2022-12-16T23:08:48.471Z,36.78
2022-12-16T23:11:40.180Z,40.28
2022-12-16T23:14:25.454Z,39.60
2022-12-16T23:17:10.681Z,47.43
2022-12-16T23:19:56.666Z,44.83
2022-12-16T23:22:41.668Z,40.67
2022-12-16T23:25:29.389Z,43.53
2022-12-16T23:28:16.054Z,48.07
2022-12-16T23:31:01.364Z,42.22
2022-12-16T23:33:46.648Z,46.00
2022-12-16T23:36:31.866Z,44.00
2022-12-16T23:39:17.154Z,44.50
2022-12-16T23:42:02.394Z,42.63
2022-12-16T23:44:56.236Z,45.35
2022-12-16T23:47:53.209Z,46.77
2022-12-16T23:50:41.607Z,45.13
2022-12-16T23:53:28.854Z,41.97
2022-12-16T23:56:14.643Z,43.50
2022-12-16T23:58:59.915Z,44.93
